Time;durP1;ratioP1;P1;durP2;ratioP2;P2;SDS_P1;SDS_P2;PMS_P1;PMS_P2;Temp;Humidity;BMP_temperature;BMP_pressure;BME280_temperature;BME280_humidity;BME280_pressure;Samples;Min_cycle;Max_cycle;Signal;HPM_P1;HPM_P2
2022/07/27 00:01:04;;;;;;;5.70;1.40;;;17.40;99.90;;;16.91;100.00;97691.91;5073765;28;20573;-64
2022/07/27 00:03:31;;;;;;;4.53;1.27;;;17.40;99.90;;;16.91;100.00;97691.91;5075971;28;20135;-64
2022/07/27 00:05:58;;;;;;;3.33;1.25;;;17.40;99.90;;;16.60;100.00;97700.06;5075324;28;20048;-64
2022/07/27 00:08:25;;;;;;;4.78;1.75;;;17.40;99.90;;;16.49;100.00;97704.25;5073979;28;20132;-64
2022/07/27 00:10:52;;;;;;;4.03;1.50;;;17.20;99.90;;;16.47;100.00;97707.91;5076071;28;20147;-64
2022/07/27 00:13:19;;;;;;;5.82;1.73;;;17.20;99.90;;;16.41;100.00;97708.28;5063896;28;20510;-64
2022/07/27 00:15:46;;;;;;;6.75;1.52;;;17.10;99.90;;;16.18;100.00;97715.00;5070131;28;20147;-64
2022/07/27 00:18:13;;;;;;;3.30;1.70;;;17.00;99.90;;;16.12;100.00;97710.97;5073433;28;20054;-64
2022/07/27 00:20:40;;;;;;;6.10;1.60;;;16.90;99.90;;;16.24;100.00;97709.38;5057946;28;20040;-64
2022/07/27 00:23:08;;;;;;;4.70;1.88;;;16.90;99.90;;;16.37;100.00;97722.53;5059256;28;20040;-64
2022/07/27 00:25:36;;;;;;;4.25;1.50;;;;;;;16.48;100.00;97725.28;5075476;28;20052;-64
2022/07/27 00:28:06;;;;;;;5.97;1.92;;;;;;;16.52;100.00;97714.53;5065715;28;20051;-64
2022/07/27 00:30:33;;;;;;;4.80;1.95;;;;;;;16.62;100.00;97719.16;5056817;28;20413;-64
2022/07/27 00:33:01;;;;;;;6.45;1.70;;;;;;;16.61;100.00;97714.88;5073071;28;20153;-66
2022/07/27 00:35:28;;;;;;;3.13;1.50;;;;;;;16.57;100.00;97710.75;5076426;28;20068;-64
2022/07/27 00:37:56;;;;;;;6.95;1.73;;;;;;;16.56;100.00;97711.69;5063246;28;20063;-64
2022/07/27 00:40:27;;;;;;;2.08;1.40;;;;;;;16.65;100.00;97705.84;5074023;28;20071;-64
2022/07/27 00:42:54;;;;;;;4.15;1.70;;;;;;;16.63;100.00;97707.75;5074766;28;20147;-64
2022/07/27 00:45:21;;;;;;;5.38;1.58;;;;;;;16.73;100.00;97698.34;5071926;28;20143;-64
2022/07/27 00:47:49;;;;;;;4.32;1.60;;;;;;;16.57;100.00;97698.50;5072566;28;20071;-65
2022/07/27 00:50:21;;;;;;;3.50;1.35;;;;;;;16.59;100.00;97686.13;5073112;28;20055;-64
2022/07/27 00:52:48;;;;;;;3.00;1.70;;;;;;;16.61;100.00;97688.66;5072286;28;20411;-64
2022/07/27 00:55:16;;;;;;;3.50;1.70;;;;;;;16.67;100.00;97685.63;5072647;28;20058;-64
2022/07/27 00:57:43;;;;;;;4.53;1.73;;;;;;;16.81;100.00;97690.00;5074087;28;20592;-65
2022/07/27 01:00:26;;;;;;;4.35;2.10;;;;;;;16.84;100.00;97688.03;5075255;28;20131;-64
2022/07/27 01:02:54;;;;;;;6.75;1.63;;;;;;;16.92;100.00;97687.50;5076421;28;20052;-64
2022/07/27 01:05:24;;;;;;;6.63;1.77;;;;;;;16.98;100.00;97683.66;5077252;28;20473;-64
2022/07/27 01:08:05;;;;;;;2.97;1.50;;;;;;;16.97;100.00;97676.69;5059316;28;20048;-64
2022/07/27 01:10:33;;;;;;;4.63;1.90;;;;;;;16.91;100.00;97677.97;5071876;28;20224;-65
2022/07/27 01:13:01;;;;;;;4.53;1.58;;;;;;;16.82;100.00;97676.78;5061134;28;20148;-62
2022/07/27 01:15:29;;;;;;;3.28;1.50;;;;;;;16.63;100.00;97687.63;5077471;28;20285;-64
2022/07/27 01:17:56;;;;;;;4.93;2.00;;;;;;;16.60;100.00;97700.06;5074969;28;20503;-64
2022/07/27 01:20:24;;;;;;;2.78;1.73;;;;;;;16.64;100.00;97691.91;5073301;28;20066;-64
2022/07/27 01:22:51;;;;;;;5.30;2.05;;;;;;;16.62;100.00;97696.41;5076790;28;20364;-64
2022/07/27 01:25:18;;;;;;;4.03;2.22;;;;;;;16.68;100.00;97692.56;5073515;28;20135;-64
2022/07/27 01:27:46;;;;;;;2.53;1.50;;;;;;;16.73;100.00;97690.47;5073207;28;20063;-64
2022/07/27 01:30:25;;;;;;;4.97;1.90;;;;;;;16.81;100.00;97690.84;5074845;28;20054;-64
2022/07/27 01:33:04;;;;;;;3.75;1.60;;;;;;;16.82;100.00;97686.44;5072310;28;20103;-64
2022/07/27 01:35:31;;;;;;;2.95;1.20;;;;;;;16.95;100.00;97684.69;5072716;28;20442;-64
2022/07/27 01:37:59;;;;;;;3.03;1.40;;;;;;;17.06;100.00;97691.81;5070613;28;20048;-64
2022/07/27 01:40:27;;;;;;;3.30;1.60;;;;;;;17.08;100.00;97687.31;5075344;28;20047;-64
2022/07/27 01:42:55;;;;;;;4.00;2.00;;;;;;;17.06;100.00;97679.56;5074572;28;20051;-64
2022/07/27 01:45:22;;;;;;;6.22;1.90;;;;;;;17.04;100.00;97678.00;5059946;28;20588;-64
2022/07/27 01:47:49;;;;;;;4.40;1.70;;;;;;;16.92;100.00;97675.25;5072852;28;20131;-64
2022/07/27 01:50:17;;;;;;;4.10;1.50;;;;;;;16.86;100.00;97685.31;5072591;28;20127;-64
2022/07/27 01:52:44;;;;;;;4.18;1.40;;;;;;;16.90;100.00;97684.13;5074913;28;20056;-64
2022/07/27 01:55:12;;;;;;;5.13;1.50;;;;;;;16.80;100.00;97678.66;5074541;28;20609;-64
2022/07/27 01:57:39;;;;;;;4.32;1.40;;;;;;;16.80;100.00;97677.84;5073580;28;20048;-65
2022/07/27 02:00:10;;;;;;;3.67;1.65;;;;;;;16.79;100.00;97677.00;5074228;28;20106;-64
2022/07/27 02:02:37;;;;;;;4.63;1.85;;;;;;;16.75;100.00;97683.34;5063948;28;20123;-64
2022/07/27 02:05:05;;;;;;;3.40;1.40;;;;;;;16.87;100.00;97690.44;5052500;28;20047;-64
2022/07/27 02:07:33;;;;;;;2.28;1.00;;;;;;;16.93;100.00;97686.56;5073563;28;20077;-64
2022/07/27 02:10:00;;;;;;;2.88;1.35;;;;;;;16.86;100.00;97685.31;5074559;28;20462;-64
2022/07/27 02:12:37;;;;;;;3.03;1.73;;;;;;;16.83;100.00;97680.25;5071402;28;20087;-64
2022/07/27 02:15:11;;;;;;;3.20;1.40;;;;;;;16.87;100.00;97676.47;5071665;28;20048;-64
2022/07/27 02:17:42;;;;;;;5.03;1.33;;;;;;;16.97;100.00;97676.69;5060150;28;20075;-64
2022/07/27 02:20:13;;;;;;;4.60;1.90;;;;;;;16.83;100.00;97670.63;5074125;28;20064;-64
2022/07/27 02:22:41;;;;;;;1.83;0.93;;;;;;;16.91;100.00;97675.34;5074992;28;20044;-64
2022/07/27 02:25:09;;;;;;;4.78;1.58;;;;;;;16.75;100.00;97670.25;5073209;28;20060;-64
2022/07/27 02:27:37;;;;;;;6.22;1.73;;;;;;;16.85;100.00;97670.50;5072696;28;20048;-64
2022/07/27 02:30:07;;;;;;;3.40;1.30;;;;;;;16.81;100.00;97675.13;5059794;28;20078;-64
2022/07/27 02:32:35;;;;;;;2.80;1.30;;;;;;;16.88;100.00;97678.19;5072477;28;20464;-64
2022/07/27 02:35:02;;;;;;;3.22;1.30;;;;;;;16.81;100.00;97677.75;5072797;28;20063;-64
2022/07/27 02:37:45;;;;;;;2.33;1.25;;;;;;;16.70;100.00;97680.19;5075438;28;20048;-64
2022/07/27 02:40:15;;;;;;;2.28;1.20;;;;;;;16.67;100.00;97672.53;5073943;28;20588;-64
2022/07/27 02:42:44;;;;;;;3.63;1.15;;;;;;;16.70;100.00;97678.41;5075567;28;20051;-64
2022/07/27 02:45:14;;;;;;;3.60;1.27;;;;;;;16.68;100.00;97676.84;5064687;28;20072;-64
2022/07/27 02:47:42;;;;;;;5.03;1.63;;;;;;;16.65;100.00;97685.75;5073297;28;20062;-65
2022/07/27 02:50:10;;;;;;;2.83;1.40;;;;;;;16.70;100.00;97688.91;5075254;28;20358;-64
2022/07/27 02:52:38;;;;;;;3.05;1.38;;;;;;;16.66;100.00;97690.03;5059871;28;20077;-65
2022/07/27 02:55:06;;;;;;;4.30;1.40;;;;;;;16.70;100.00;97685.44;5058165;28;20140;-65
2022/07/27 02:57:36;;;;;;;3.95;1.58;;;;;;;16.66;100.00;97687.41;5039856;28;20107;-65
2022/07/27 03:00:06;;;;;;;7.63;1.67;;;;;;;16.50;100.00;97698.06;5074238;28;20040;-65
2022/07/27 03:02:33;;;;;;;3.72;1.30;;;;;;;16.48;100.00;97686.00;5071442;28;20072;-65
2022/07/27 03:05:01;;;;;;;4.07;1.38;;;;;;;16.43;100.00;97680.22;5060737;28;20053;-65
2022/07/27 03:07:28;;;;;;;4.78;1.40;;;;;;;16.43;100.00;97680.22;5058329;28;20539;-65
2022/07/27 03:09:56;;;;;;;3.35;1.30;;;;;;;16.36;100.00;97685.00;5060331;28;20218;-65
2022/07/27 03:12:23;;;;;;;5.80;1.48;;;;;;;16.36;100.00;97682.38;5073519;28;20045;-65
2022/07/27 03:14:51;;;;;;;3.83;1.17;;;;;;;16.41;100.00;97687.34;5042241;28;20130;-65
2022/07/27 03:17:18;;;;;;;3.78;1.42;;;;;;;16.45;100.00;97689.66;5059330;28;20076;-65
2022/07/27 03:19:48;;;;;;;3.40;1.50;;;;;;;16.42;100.00;97692.50;5072582;28;20163;-65
2022/07/27 03:22:16;;;;;;;2.20;1.20;;;;;;;16.44;100.00;97687.97;5071293;28;20135;-65
2022/07/27 03:24:43;;;;;;;2.47;1.20;;;;;;;16.40;100.00;97686.50;5071285;28;20054;-65
2022/07/27 03:27:10;;;;;;;5.07;1.58;;;;;;;16.47;100.00;97686.94;5072786;28;20066;-65
2022/07/27 03:29:38;;;;;;;2.90;1.42;;;;;;;16.43;100.00;97688.09;5072477;28;20144;-65
2022/07/27 03:32:05;;;;;;;4.13;1.35;;;;;;;16.36;100.00;97685.00;5074979;28;20040;-65
2022/07/27 03:34:33;;;;;;;3.97;1.45;;;;;;;16.38;100.00;97691.00;5053231;28;20143;-65
2022/07/27 03:37:00;;;;;;;3.17;1.10;;;;;;;16.35;100.00;97698.19;5070195;28;20476;-65
2022/07/27 03:39:27;;;;;;;4.55;1.40;;;;;;;16.21;100.00;97694.69;5071971;28;20399;-65
2022/07/27 03:41:55;;;;;;;2.53;0.98;;;;;;;16.22;100.00;97704.22;5071371;28;20230;-65
2022/07/27 03:44:22;;;;;;;7.82;1.45;;;;;;;16.16;100.00;97704.59;5076218;28;20455;-64
2022/07/27 03:46:49;;;;;;;5.18;1.58;;;;;;;16.16;100.00;97709.84;5078628;28;20047;-65
2022/07/27 03:49:17;;;;;;;7.30;1.67;;;;;;;16.08;100.00;97712.97;5072030;28;20060;-65
2022/07/27 03:51:45;;;;;;;2.67;1.15;;;;;;;16.13;100.00;97717.91;5058201;28;20059;-65
2022/07/27 03:54:12;;;;;;;5.15;1.40;;;;;;;16.11;100.00;97725.00;5074574;28;20058;-65
2022/07/27 03:56:40;;;;;;;3.78;1.15;;;;;;;16.20;100.00;97718.38;5072080;28;20151;-65
2022/07/27 03:59:07;;;;;;;4.13;1.35;;;;;;;16.21;100.00;97718.25;5073606;28;20131;-65
2022/07/27 04:01:35;;;;;;;5.63;1.48;;;;;;;16.15;100.00;97715.16;5076305;28;20530;-65
2022/07/27 04:04:03;;;;;;;3.15;1.40;;;;;;;16.18;100.00;97715.00;5069012;28;20155;-64
2022/07/27 04:06:31;;;;;;;5.43;1.30;;;;;;;16.03;100.00;97714.16;5071902;28;20680;-65
2022/07/27 04:08:58;;;;;;;3.08;1.48;;;;;;;16.15;100.00;97718.66;5070338;28;20692;-65
2022/07/27 04:11:35;;;;;;;3.88;1.42;;;;;;;16.05;100.00;97720.16;5073560;28;20067;-64
2022/07/27 04:14:11;;;;;;;4.20;1.52;;;;;;;16.03;100.00;97709.78;5057753;28;20509;-64
2022/07/27 04:16:42;;;;;;;5.20;1.33;;;;;;;16.06;100.00;97711.38;5072369;28;20662;-64
2022/07/27 04:19:09;;;;;;;5.05;1.50;;;;;;;15.96;100.00;97712.88;5072000;28;20063;-64
2022/07/27 04:21:37;;;;;;;4.55;1.63;;;;;;;15.97;100.00;97715.41;5072001;28;20083;-65
2022/07/27 04:24:05;;;;;;;5.75;1.38;;;;;;;16.00;100.00;97719.59;5071806;28;21936;-64
2022/07/27 04:26:33;;;;;;;3.25;1.30;;;;;;;16.00;100.00;97717.81;5070911;28;20172;-64
2022/07/27 04:29:00;;;;;;;3.17;1.33;;;;;;;16.04;100.00;97719.31;5071031;28;20044;-64
2022/07/27 04:31:28;;;;;;;4.25;1.58;;;;;;;16.08;100.00;97718.19;5075276;28;20155;-64
2022/07/27 04:33:55;;;;;;;2.67;1.20;;;;;;;16.09;100.00;97716.41;5056636;28;20147;-64
2022/07/27 04:36:22;;;;;;;3.65;1.40;;;;;;;16.05;100.00;97720.16;5071787;28;20064;-64
2022/07/27 04:38:50;;;;;;;3.30;1.38;;;;;;;16.02;100.00;97715.94;5075698;28;20163;-64
2022/07/27 04:41:17;;;;;;;2.67;1.25;;;;;;;16.02;100.00;97717.75;5058533;28;20045;-65
2022/07/27 04:43:44;;;;;;;3.13;1.05;;;;;;;16.03;100.00;97722.03;5076403;28;20131;-65
2022/07/27 04:46:13;;;;;;;5.30;1.45;;;;;;;15.92;100.00;97730.56;5073836;28;20143;-64
2022/07/27 04:48:42;;;;;;;3.45;1.20;;;;;;;15.96;100.00;97733.81;5074410;28;20062;-64
2022/07/27 04:51:16;;;;;;;6.57;1.55;;;;;;;15.74;100.00;97735.16;5072478;28;20453;-64
2022/07/27 04:53:44;;;;;;;4.10;1.60;;;;;;;15.75;100.00;97744.66;5075529;28;20104;-64
2022/07/27 04:56:25;;;;;;;5.03;1.20;;;;;;;15.88;100.00;97750.00;5061545;28;20508;-65
2022/07/27 04:58:53;;;;;;;2.63;0.90;;;;;;;15.91;100.00;97739.34;5074105;28;20083;-64
2022/07/27 05:01:21;;;;;;;3.85;1.08;;;;;;;15.96;100.00;97744.28;5076403;28;20055;-65
2022/07/27 05:03:49;;;;;;;6.68;1.33;;;;;;;16.06;100.00;97748.88;5075826;28;20455;-65
2022/07/27 05:06:17;;;;;;;4.03;1.10;;;;;;;16.06;100.00;97741.00;5074439;28;20131;-65
2022/07/27 05:08:44;;;;;;;6.07;1.15;;;;;;;16.00;100.00;97749.25;5073703;28;20553;-65
2022/07/27 05:11:11;;;;;;;4.65;1.27;;;;;;;16.12;100.00;97755.47;5072167;28;20105;-65
2022/07/27 05:13:39;;;;;;;4.63;1.10;;;;;;;15.92;100.00;97759.34;5044884;28;20143;-65
2022/07/27 05:16:10;;;;;;;5.10;1.27;;;;;;;16.07;100.00;97774.09;5057860;28;20520;-65
2022/07/27 05:18:38;;;;;;;8.13;1.40;;;;;;;16.09;100.00;97767.00;5076536;28;20094;-65
2022/07/27 05:21:07;;;;;;;4.72;1.10;;;;;;;16.12;100.00;97767.75;5074004;28;20127;-65
2022/07/27 05:23:34;;;;;;;3.78;1.30;;;;;;;16.14;100.00;97773.72;5060858;28;20059;-65
2022/07/27 05:26:02;;;;;;;6.03;1.00;;;;;;;16.12;100.00;97780.84;5063815;28;20334;-65
2022/07/27 05:28:29;;;;;;;3.75;0.90;;;;;;;16.10;100.00;97770.44;5075932;28;20064;-65
2022/07/27 05:30:56;;;;;;;4.47;1.13;;;;;;;15.99;100.00;97773.75;5075514;28;20443;-65
2022/07/27 05:33:24;;;;;;;3.85;1.10;;;;;;;15.97;100.00;97780.03;5075639;28;20048;-64
2022/07/27 05:35:51;;;;;;;5.95;0.95;;;;;;;16.06;100.00;97777.66;5073713;28;20362;-65
2022/07/27 05:38:19;;;;;;;4.15;1.00;;;;;;;16.10;100.00;97778.31;5069228;28;20062;-65
2022/07/27 05:40:49;;;;;;;4.60;1.10;;;;;;;16.05;100.00;97783.00;5075809;28;20050;-65
2022/07/27 05:43:17;;;;;;;4.13;0.88;;;;;;;16.12;100.00;97779.06;5073771;28;20040;-65
2022/07/27 05:45:44;;;;;;;4.43;1.00;;;;;;;16.22;100.00;97784.59;5077914;28;20047;-66
2022/07/27 05:48:12;;;;;;;4.03;1.10;;;;;;;16.19;100.00;97787.38;5074637;28;20543;-65
2022/07/27 05:50:39;;;;;;;5.85;1.08;;;;;;;16.27;100.00;97779.91;5074444;28;20202;-65
2022/07/27 05:53:12;;;;;;;4.40;0.98;;;;;;;16.26;100.00;97786.06;5074414;28;20044;-65
2022/07/27 05:55:40;;;;;;;5.25;1.08;;;;;;;16.31;100.00;97789.25;5075613;28;20138;-65
2022/07/27 05:58:26;;;;;;;5.60;1.27;;;;;;;16.22;100.00;97782.81;5072009;28;20445;-65
2022/07/27 06:00:55;;;;;;;3.70;0.90;;;;;;;16.37;100.00;97788.84;5055643;28;20145;-65
2022/07/27 06:03:23;;;;;;;6.53;1.20;;;;;;;16.44;100.00;97789.31;5080044;28;20051;-64
2022/07/27 06:05:51;;;;;;;4.70;1.10;;;;;;;16.50;100.00;97786.31;5077664;28;20474;-65
2022/07/27 06:08:18;;;;;;;6.35;0.98;;;;;;;16.51;100.00;97786.22;5063581;28;20075;-64
2022/07/27 06:10:45;;;;;;;5.15;0.80;;;;;;;16.58;100.00;97778.81;5082800;28;20122;-65
2022/07/27 06:13:13;;;;;;;3.72;0.80;;;;;;;16.73;100.00;97785.66;5075105;28;20486;-64
2022/07/27 06:15:40;;;;;;;4.43;1.05;;;;;;;16.81;100.00;97785.22;5075089;28;20135;-65
2022/07/27 06:18:13;;;;;;;2.42;0.85;;;;;;;16.77;100.00;97777.63;5075280;28;20127;-65
2022/07/27 06:20:42;;;;;;;4.82;0.90;;;;;;;16.59;100.00;97779.66;5073006;28;20048;-64
2022/07/27 06:23:09;;;;;;;4.63;1.15;;;;;;;16.62;100.00;97795.16;5073273;28;20540;-65
2022/07/27 06:25:37;;;;;;;7.75;1.05;;;;;;;16.74;100.00;97783.91;5070692;28;20527;-65
2022/07/27 06:28:05;;;;;;;5.13;1.08;;;;;;;16.65;100.00;97792.34;5077380;28;20045;-65
2022/07/27 06:30:32;;;;;;;2.58;0.90;;;;;;;16.96;100.00;97790.41;5056433;28;20116;-65
2022/07/27 06:33:03;;;;;;;6.75;0.90;;;;;;;16.90;100.00;97782.00;5074342;28;20463;-65
2022/07/27 06:35:32;;;;;;;5.05;1.10;;;;;;;17.09;100.00;97767.69;5058243;28;20813;-65
2022/07/27 06:38:00;;;;;;;6.20;1.00;;;;;;;17.30;100.00;97774.13;5071643;28;20040;-65
2022/07/27 06:40:28;;;;;;;2.72;0.88;;;;;;;17.13;100.00;97770.00;5052980;28;20056;-65
2022/07/27 06:42:57;;;;;;;4.68;1.02;;;;;;;17.18;100.00;97766.25;5044733;28;20399;-65
2022/07/27 06:45:24;;;;;;;4.18;0.82;;;;;;;17.64;100.00;97761.34;5070570;28;20051;-65
2022/07/27 06:47:52;;;;;;;5.40;0.93;;;;;;;17.92;100.00;97756.84;5059041;28;20055;-65
2022/07/27 06:50:20;;;;;;;4.18;0.90;;;;;;;18.07;100.00;97740.03;5076046;28;20083;-65
2022/07/27 06:52:48;;;;;;;3.35;0.80;;;;;;;17.96;100.00;97753.06;5073112;28;20526;-65
2022/07/27 06:55:16;;;;;;;4.35;1.00;;;;;;;18.05;100.00;97752.44;5059226;28;20504;-65
2022/07/27 06:57:45;;;;;;;5.13;0.90;;;;;;;18.09;100.00;97748.63;5058393;28;20048;-65
2022/07/27 07:00:13;;;;;;;4.43;0.80;;;;;;;17.88;100.00;97755.38;5058279;28;20057;-65
2022/07/27 07:02:57;;;;;;;11.13;1.10;;;;;;;17.60;100.00;97762.50;5055110;28;20050;-65
2022/07/27 07:05:25;;;;;;;5.45;0.88;;;;;;;17.82;100.00;97768.94;5074860;28;20569;-65
2022/07/27 07:07:54;;;;;;;8.07;0.90;;;;;;;17.51;100.00;97773.63;5070906;28;20543;-65
2022/07/27 07:10:23;;;;;;;6.03;1.33;;;;;;;17.68;100.00;97770.69;5071490;28;20093;-65
2022/07/27 07:12:54;;;;;;;3.95;1.17;;;;;;;17.35;100.00;97779.88;5073049;28;20039;-65
2022/07/27 07:15:25;;;;;;;6.50;1.33;;;;;;;17.44;100.00;97786.31;5074008;28;20135;-65
2022/07/27 07:17:53;;;;;;;4.57;1.10;;;;;;;17.33;100.00;97781.81;5072795;28;20348;-65
2022/07/27 07:20:20;;;;;;;5.45;1.20;;;;;;;17.61;100.00;97781.69;5068427;28;20143;-65
2022/07/27 07:22:48;;;;;;;5.88;0.90;;;;;;;17.89;100.00;97776.28;5072870;28;20127;-66
2022/07/27 07:25:15;;;;;;;5.45;0.90;;;;;;;17.78;100.00;97781.41;5060063;28;20147;-65
2022/07/27 07:27:43;;;;;;;6.35;1.13;;;;;;;17.67;100.00;97771.63;5073868;28;20465;-65
2022/07/27 07:30:11;;;;;;;2.35;0.75;;;;;;;17.93;100.00;97769.88;5070219;28;20223;-65
2022/07/27 07:32:38;;;;;;;4.13;0.80;;;;;;;17.68;100.00;97762.00;5071151;28;20043;-65
2022/07/27 07:35:06;;;;;;;4.63;1.33;;;;;;;17.68;100.00;97775.13;5074748;28;20547;-65
2022/07/27 07:37:33;;;;;;;7.90;1.00;;;;;;;17.68;100.00;97775.13;5073466;28;20048;-65
2022/07/27 07:40:01;;;;;;;6.38;1.20;;;;;;;17.69;100.00;97769.75;5074232;28;20135;-65
2022/07/27 07:42:52;;;;;;;6.65;1.10;;;;;;;17.81;100.00;97764.59;5073906;28;20051;-65
2022/07/27 07:45:22;;;;;;;4.75;1.10;;;;;;;17.86;100.00;97771.25;5074394;28;20386;-67
2022/07/27 07:47:49;;;;;;;7.57;1.00;;;;;;;17.85;100.00;97766.09;5074729;28;20084;-65
2022/07/27 07:50:17;;;;;;;4.70;0.90;;;;;;;18.01;100.00;97760.63;5072922;28;20132;-65
2022/07/27 07:52:46;;;;;;;9.43;1.25;;;;;;;17.97;100.00;97750.34;5070572;28;20044;-65
2022/07/27 07:55:14;;;;;;;4.80;0.90;;;;;;;18.31;100.00;97744.47;5073651;28;20472;-65
2022/07/27 07:57:41;;;;;;;3.67;0.85;;;;;;;18.65;100.00;97732.38;5061366;28;20131;-65
2022/07/27 08:00:09;;;;;;;3.60;1.00;;;;;;;19.16;100.00;97713.72;5071520;28;20052;-65
2022/07/27 08:02:56;;;;;;;6.22;1.00;;;;;;;19.11;100.00;97715.00;5072276;28;20139;-65
2022/07/27 08:05:24;;;;;;;2.85;0.80;;;;;;;19.85;100.00;97726.03;5072824;28;20512;-65
2022/07/27 08:07:52;;;;;;;4.72;1.13;;;;;;;20.11;100.00;97709.97;5070631;28;20131;-66
2022/07/27 08:10:20;;;;;;;4.80;1.15;;;;;;;19.60;100.00;97712.13;5051860;28;20234;-65
2022/07/27 08:12:51;;;;;;;5.50;0.90;;;;;;;19.64;100.00;97713.56;5073546;28;20045;-65
2022/07/27 08:15:20;;;;;;;7.05;1.13;;;;;;;19.26;100.00;97723.56;5077300;28;20062;-65
2022/07/27 08:18:00;;;;;;;4.10;1.00;;;;;;;19.18;100.00;97719.72;5076436;28;20052;-65
2022/07/27 08:20:28;;;;;;;5.78;0.85;;;;;;;19.47;100.00;97732.44;5072680;28;20465;-65
2022/07/27 08:22:55;;;;;;;6.65;0.90;;;;;;;19.36;100.00;97725.38;5075032;28;20040;-65
2022/07/27 08:25:22;;;;;;;4.97;1.48;;;;;;;19.52;100.00;97725.00;5080377;28;20121;-64
2022/07/27 08:27:50;;;;;;;5.07;1.13;;;;;;;19.09;100.00;97724.81;5079325;28;20136;-63
2022/07/27 08:30:17;;;;;;;6.30;1.00;;;;;;;19.52;100.00;97726.81;5075192;28;20142;-64
2022/07/27 08:32:49;;;;;;;6.70;1.30;;;;;;;19.82;100.00;97719.22;5073736;28;20554;-65
2022/07/27 08:35:18;;;;;;;7.28;1.15;;;;;;;19.43;100.00;97723.94;5074189;28;20054;-65
2022/07/27 08:37:45;;;;;;;5.45;0.80;;;;;;;19.85;100.00;97716.34;5075905;28;20116;-66
2022/07/27 08:40:13;;;;;;;4.75;1.27;;;;;;;19.63;100.00;97713.66;5071695;28;20044;-65
2022/07/27 08:43:02;;;;;;;5.03;1.08;;;;;;;19.74;100.00;97718.97;5072627;28;20164;-65
2022/07/27 08:45:32;;;;;;;3.90;0.80;;;;;;;19.94;100.00;97719.22;5073710;28;20139;-65
2022/07/27 08:47:59;;;;;;;7.32;0.90;;;;;;;19.68;100.00;97716.78;5078293;28;20072;-65
2022/07/27 08:50:29;;;;;;;5.07;1.10;;;;;;;19.50;100.00;97715.56;5076245;28;20076;-65
2022/07/27 08:53:04;;;;;;;6.30;1.00;;;;;;;19.67;100.00;97722.19;5056179;28;20095;-65
2022/07/27 08:55:36;;;;;;;9.60;1.15;;;;;;;19.59;100.00;97723.63;5070289;28;20063;-65
2022/07/27 08:58:04;;;;;;;4.68;0.90;;;;;;;19.62;100.00;97719.91;5071862;28;20393;-65
2022/07/27 09:00:33;;;;;;;6.90;1.00;;;;;;;19.62;100.00;97720.72;5074964;28;20083;-66
2022/07/27 09:03:00;;;;;;;9.20;1.27;;;;;;;19.75;100.00;97719.81;5073756;28;20135;-63
2022/07/27 09:05:28;;;;;;;5.05;0.98;;;;;;;19.91;100.00;97720.31;5069053;28;20075;-66
2022/07/27 09:08:12;;;;;;;4.75;1.10;;;;;;;19.57;100.00;97711.53;5068879;28;20056;-66
2022/07/27 09:10:40;;;;;;;4.97;1.20;;;;;;;19.68;100.00;97722.03;5068684;28;20087;-63
2022/07/27 09:13:16;;;;;;;2.85;0.80;;;;;;;20.26;100.00;97720.13;5066118;28;20050;-66
2022/07/27 09:15:48;;;;;;;6.07;0.98;;;;;;;20.30;100.00;97715.47;5072903;28;20052;-65
2022/07/27 09:18:37;;;;;;;6.18;1.35;;;;;;;20.60;100.00;97719.25;5069331;28;20055;-66
2022/07/27 09:21:20;;;;;;;5.30;1.10;;;;;;;20.62;100.00;97710.25;5078705;28;20200;-66
2022/07/27 09:23:53;;;;;;;4.38;1.23;;;;;;;20.36;100.00;97714.13;5062057;28;20070;-63
2022/07/27 09:26:20;;;;;;;;;;;;;;;20.61;100.00;97713.84;5065372;28;20160;-64
2022/07/27 09:29:01;;;;;;;5.20;0.90;;;;;;;20.68;100.00;97716.81;5070995;28;20339;-65
2022/07/27 09:31:29;;;;;;;5.68;1.20;;;;;;;20.90;100.00;97702.72;5073664;28;20131;-64
2022/07/27 09:33:59;;;;;;;2.88;1.00;;;;;;;21.44;100.00;97690.31;5071498;28;20049;-64
2022/07/27 09:36:28;;;;;;;6.10;1.02;;;22.50;99.90;;;21.17;100.00;97698.75;5068883;28;20058;-64
2022/07/27 09:39:04;;;;;;;5.97;0.90;;;22.70;99.90;;;21.40;100.00;97708.22;5071813;28;20143;-65
2022/07/27 09:41:50;;;;;;;4.25;1.23;;;22.90;99.90;;;21.59;100.00;97698.72;5072046;28;20100;-65
2022/07/27 09:44:42;;;;;;;6.45;1.08;;;23.10;99.90;;;22.21;100.00;97695.09;5054853;28;20475;-65
2022/07/27 09:47:29;;;;;;;4.05;0.90;;;23.20;99.90;;;21.91;100.00;97702.06;5071085;28;20204;-65
2022/07/27 09:50:19;;;;;;;5.93;1.30;;;23.20;99.90;;;22.43;100.00;97691.38;5054656;28;20036;-65
2022/07/27 09:52:47;;;;;;;5.68;1.10;;;23.30;99.90;;;22.40;100.00;97686.38;5053516;28;20580;-65
2022/07/27 09:55:18;;;;;;;4.20;0.95;;;23.50;99.90;;;22.00;100.00;97696.97;5067304;28;20113;-65
2022/07/27 09:57:55;;;;;;;5.47;1.15;;;23.30;99.90;;;22.18;100.00;97705.09;5068987;28;20062;-66
2022/07/27 10:00:24;;;;;;;3.65;0.82;;;23.30;99.90;;;22.26;100.00;97694.69;5061825;28;20148;-65
2022/07/27 10:02:52;;;;;;;6.53;1.17;;;23.30;99.90;;;21.59;100.00;97704.84;5070417;28;20463;-66
2022/07/27 10:05:21;;;;;;;4.28;0.85;;;23.30;99.90;;;21.72;100.00;97702.84;5059887;28;20660;-65
2022/07/27 10:07:51;;;;;;;5.22;0.80;;;23.20;99.90;;;21.87;100.00;97705.09;5070737;28;20048;-66
2022/07/27 10:10:18;;;;;;;4.78;0.90;;;23.20;99.90;;;21.76;100.00;97702.56;5068850;28;20134;-65
2022/07/27 10:12:47;;;;;;;5.13;0.80;;;;;;;22.83;100.00;97697.53;5058016;28;20044;-65
2022/07/27 10:15:22;;;;;;;3.42;0.90;;;;;;;22.47;100.00;97705.19;5064144;28;20642;-65
2022/07/27 10:18:04;;;;;;;6.47;1.00;;;;;;;21.63;100.00;97711.53;5055143;28;20164;-64
2022/07/27 10:20:37;;;;;;;4.82;1.00;;;;;;;21.34;100.00;97711.34;5053499;28;20063;-64
2022/07/27 10:23:04;;;;;;;5.13;1.00;;;;;;;21.86;100.00;97712.22;5053794;28;20058;-65
2022/07/27 10:25:34;;;;;;;5.53;0.88;;;;;;;21.78;100.00;97704.13;5049237;28;20052;-65
2022/07/27 10:28:08;;;;;;;5.20;1.35;;;;;;;22.31;100.00;97703.91;5072292;28;20102;-64
2022/07/27 10:30:36;;;;;;;5.88;1.00;;;;;;;23.45;100.00;97696.25;5071775;28;20066;-66
2022/07/27 10:33:58;;;;;;;4.00;0.93;;;24.40;99.90;;;24.12;100.00;97699.63;5069304;28;20058;-65
2022/07/27 10:36:28;;;;;;;4.00;0.73;;;24.40;99.90;;;23.40;100.00;97695.84;5071393;28;20067;-65
2022/07/27 10:38:59;;;;;;;6.38;1.02;;;24.20;99.90;;;23.67;100.00;97696.88;5072762;28;20167;-65
2022/07/27 10:41:28;;;;;;;3.75;0.77;;;24.60;99.90;;;25.23;100.00;97689.66;5065208;28;20123;-65
2022/07/27 10:44:13;;;;;;;2.63;0.80;;;25.20;99.20;;;25.06;100.00;97695.78;5071087;28;20148;-65
2022/07/27 10:46:59;;;;;;;4.20;1.00;;;25.70;97.40;;;24.55;100.00;97698.16;5068552;28;20055;-65
2022/07/27 10:49:33;;;;;;;5.85;0.80;;;25.60;96.30;;;23.53;100.00;97700.81;5054300;28;20131;-65
2022/07/27 10:52:41;;;;;;;14.63;1.13;;;25.20;95.80;;;23.22;100.00;97687.81;5068693;28;20054;-65
2022/07/27 10:55:27;;;;;;;4.63;0.70;;;24.60;95.90;;;23.71;100.00;97691.13;5071410;28;20121;-65
2022/07/27 10:58:08;;;;;;;4.63;0.80;;;25.00;96.50;;;24.16;100.00;97686.94;5072103;28;20540;-66
2022/07/27 11:00:47;;;;;;;4.97;1.08;;;25.00;95.60;;;23.29;100.00;97688.06;5065078;28;20138;-66
2022/07/27 11:03:27;;;;;;;3.90;0.80;;;25.00;95.30;;;24.14;100.00;97688.88;5070139;28;20051;-65
2022/07/27 11:06:04;;;;;;;7.95;1.10;;;25.20;95.40;;;24.00;100.00;97685.75;5069878;28;20059;-66
2022/07/27 11:08:56;;;;;;;4.07;0.70;;;25.20;95.10;;;23.69;100.00;97681.66;5056871;28;20118;-66
2022/07/27 11:11:43;;;;;;;6.05;1.00;;;25.00;94.90;;;23.67;100.00;97686.28;5074888;28;20062;-65
2022/07/27 11:14:10;;;;;;;4.00;0.80;;;24.90;95.10;;;24.65;100.00;97679.50;5067214;28;20579;-65
2022/07/27 11:16:38;;;;;;;2.80;0.90;;;25.30;95.10;;;23.96;100.00;97681.72;5058044;28;20048;-66
2022/07/27 11:19:26;;;;;;;5.22;0.80;;;25.50;94.00;;;24.05;100.00;97674.69;5057831;28;20044;-66
2022/07/27 11:21:53;;;;;;;4.03;0.82;;;25.20;93.80;;;24.38;100.00;97673.25;5068266;28;20055;-66
2022/07/27 11:24:22;;;;;;;3.97;0.80;;;25.70;93.40;;;25.15;100.00;97672.78;5070865;28;20465;-65
2022/07/27 11:26:51;;;;;;;3.10;0.70;;;26.00;93.00;;;26.39;100.00;97659.97;5059923;28;20047;-65